Skagway, AK (99840)

10:44 AM AKST on November 28, 2014 (GMT -0900)
Skagway | Change Station
CLOSE
Current Station
Airport
Location: Skagway,
Elevation: 16 ft
Nearby Weather Stations

Elev 16 ft 59.46 °N, 135.32 °W | Updated 51 minutes ago

Clear
Clear
17 °F
Feels Like 4 °F
N
13
Wind Variable Wind from NNE

Today
High -- | Low -- °F
--% Chance of Precip.
Yesterday
High -- | Low -- °F
Precip. -- in
8:26 AM 3:11 PM
Waxing Crescent, 43% visible
Pressure 30.38 in
Visibility 10.0 miles
Clouds Clear
Windchill 4 °F
Dew Point 0 °F
Humidity 47%
Rainfall 0.00 in
Snow Depth Not available.
UV 0 out of 12
Pollen Not available.
Air Quality Not available.
Flu Activity Not available.
METAR PAGY 281853Z AUTO 03011KT 10SM CLR M08/M18 A3037 RMK AO2 SLP285 T10831178 TSNO

More Conditions Fewer Conditions

Pressure 30.38 in
Visibility 10.0 miles
Clouds Clear
Windchill 4 °F
Dew Point 0 °F
Humidity 47%
Rainfall 0.00 in
Snow Depth Not available.
UV 0 out of 12
Pollen Not available.
Air Quality Not available.
Flu Activity Not available.
METAR PAGY 281853Z AUTO 03011KT 10SM CLR M08/M18 A3037 RMK AO2 SLP285 T10831178 TSNO

More Conditions Fewer Conditions

10-Day Weather Forecast

Almanac

Astronomy

Nov. 28, 2014 Rise Set
Actual Time
Civil Twilight
Nautical Twilight
Astronomical Twilight
Moon
Length of Visible Light
Length of Day
Tomorrow will be .
, % of the Moon is Illuminated

Today's Extremes

State Highs State Lows

Community

WunderPhotos

Upload Photos

1,774,271 photos uploaded!

WunderBlogs® & News

Nearby

Air Quality

  Air Quality AQ Index Pollutant
Not available.

Snow Depth

Station Depth Elevation

Earthquake Activity

City Distance Mag. Time & Date
Minimum magnitude displayed is 2.5.

Coastal Water Temperatures

Place Temperature

Nearby Weather Stations